sensor_id;sensor_type;location;lat;lon;timestamp;P1;durP1;ratioP1;P2;durP2;ratioP2
78895;SDS011;68284;59.124;37.910;2023-05-10T00:01:13;13.85;;;4.07;;
78895;SDS011;68284;59.124;37.910;2023-05-10T00:03:39;6.88;;;3.70;;
78895;SDS011;68284;59.124;37.910;2023-05-10T00:06:07;6.25;;;2.67;;
78895;SDS011;68284;59.124;37.910;2023-05-10T00:08:33;7.95;;;3.47;;
78895;SDS011;68284;59.124;37.910;2023-05-10T00:11:01;5.55;;;2.20;;
78895;SDS011;68284;59.124;37.910;2023-05-10T00:13:27;6.70;;;3.20;;
78895;SDS011;68284;59.124;37.910;2023-05-10T00:18:20;2.55;;;2.22;;
78895;SDS011;68284;59.124;37.910;2023-05-10T00:23:14;8.70;;;4.03;;
78895;SDS011;68284;59.124;37.910;2023-05-10T00:25:40;10.27;;;5.32;;
78895;SDS011;68284;59.124;37.910;2023-05-10T00:28:07;7.85;;;6.00;;
78895;SDS011;68284;59.124;37.910;2023-05-10T00:33:01;13.98;;;3.92;;
78895;SDS011;68284;59.124;37.910;2023-05-10T00:37:54;8.50;;;2.25;;
78895;SDS011;68284;59.124;37.910;2023-05-10T00:40:20;7.53;;;2.75;;
78895;SDS011;68284;59.124;37.910;2023-05-10T00:42:52;5.10;;;2.88;;
78895;SDS011;68284;59.124;37.910;2023-05-10T00:45:20;3.97;;;2.20;;
78895;SDS011;68284;59.124;37.910;2023-05-10T00:47:46;6.18;;;4.03;;
78895;SDS011;68284;59.124;37.910;2023-05-10T00:50:13;6.03;;;4.78;;
78895;SDS011;68284;59.124;37.910;2023-05-10T00:52:41;6.47;;;4.40;;
78895;SDS011;68284;59.124;37.910;2023-05-10T00:55:09;5.68;;;3.25;;
78895;SDS011;68284;59.124;37.910;2023-05-10T00:57:38;5.32;;;4.47;;
78895;SDS011;68284;59.124;37.910;2023-05-10T01:00:05;6.03;;;4.07;;
78895;SDS011;68284;59.124;37.910;2023-05-10T01:02:33;4.63;;;2.75;;
78895;SDS011;68284;59.124;37.910;2023-05-10T01:05:01;6.80;;;4.00;;
78895;SDS011;68284;59.124;37.910;2023-05-10T01:07:29;3.67;;;3.38;;
78895;SDS011;68284;59.124;37.910;2023-05-10T01:09:57;8.40;;;5.03;;
78895;SDS011;68284;59.124;37.910;2023-05-10T01:12:23;8.63;;;4.05;;
78895;SDS011;68284;59.124;37.910;2023-05-10T01:14:51;5.10;;;4.60;;
78895;SDS011;68284;59.124;37.910;2023-05-10T01:17:17;5.47;;;3.78;;
78895;SDS011;68284;59.124;37.910;2023-05-10T01:19:44;3.95;;;3.65;;
78895;SDS011;68284;59.124;37.910;2023-05-10T01:30:35;4.85;;;2.53;;
78895;SDS011;68284;59.124;37.910;2023-05-10T01:33:56;4.82;;;3.22;;
78895;SDS011;68284;59.124;37.910;2023-05-10T01:39:00;6.47;;;2.92;;
78895;SDS011;68284;59.124;37.910;2023-05-10T01:44:18;3.28;;;2.72;;
78895;SDS011;68284;59.124;37.910;2023-05-10T01:46:48;5.03;;;3.70;;
78895;SDS011;68284;59.124;37.910;2023-05-10T01:49:25;8.13;;;4.30;;
78895;SDS011;68284;59.124;37.910;2023-05-10T01:52:03;6.82;;;3.90;;
78895;SDS011;68284;59.124;37.910;2023-05-10T01:54:41;11.80;;;5.50;;
78895;SDS011;68284;59.124;37.910;2023-05-10T01:57:14;5.78;;;4.22;;
78895;SDS011;68284;59.124;37.910;2023-05-10T01:59:43;10.98;;;4.03;;
78895;SDS011;68284;59.124;37.910;2023-05-10T02:02:15;7.53;;;3.47;;
78895;SDS011;68284;59.124;37.910;2023-05-10T02:04:43;7.38;;;3.58;;
78895;SDS011;68284;59.124;37.910;2023-05-10T02:07:12;6.38;;;4.45;;
78895;SDS011;68284;59.124;37.910;2023-05-10T02:09:40;6.93;;;3.88;;
78895;SDS011;68284;59.124;37.910;2023-05-10T02:12:09;4.68;;;2.53;;
78895;SDS011;68284;59.124;37.910;2023-05-10T02:14:38;6.80;;;3.65;;
78895;SDS011;68284;59.124;37.910;2023-05-10T02:17:06;5.35;;;3.88;;
78895;SDS011;68284;59.124;37.910;2023-05-10T02:19:34;9.75;;;4.65;;
78895;SDS011;68284;59.124;37.910;2023-05-10T02:22:04;6.57;;;3.00;;
78895;SDS011;68284;59.124;37.910;2023-05-10T02:24:32;5.90;;;3.22;;
78895;SDS011;68284;59.124;37.910;2023-05-10T02:27:00;7.40;;;3.40;;
78895;SDS011;68284;59.124;37.910;2023-05-10T02:29:29;10.55;;;4.25;;
78895;SDS011;68284;59.124;37.910;2023-05-10T02:31:58;11.32;;;5.10;;
78895;SDS011;68284;59.124;37.910;2023-05-10T02:34:25;5.28;;;4.20;;
78895;SDS011;68284;59.124;37.910;2023-05-10T02:36:53;10.32;;;4.07;;
78895;SDS011;68284;59.124;37.910;2023-05-10T02:39:20;14.82;;;4.47;;
78895;SDS011;68284;59.124;37.910;2023-05-10T02:41:48;12.52;;;4.32;;
78895;SDS011;68284;59.124;37.910;2023-05-10T02:44:17;9.50;;;4.93;;
78895;SDS011;68284;59.124;37.910;2023-05-10T02:46:46;15.60;;;6.15;;
78895;SDS011;68284;59.124;37.910;2023-05-10T02:49:13;11.30;;;5.32;;
78895;SDS011;68284;59.124;37.910;2023-05-10T02:52:00;8.95;;;3.70;;
78895;SDS011;68284;59.124;37.910;2023-05-10T02:54:29;11.02;;;4.03;;
78895;SDS011;68284;59.124;37.910;2023-05-10T02:56:59;6.80;;;4.85;;
78895;SDS011;68284;59.124;37.910;2023-05-10T02:59:30;13.57;;;4.53;;
78895;SDS011;68284;59.124;37.910;2023-05-10T03:01:58;9.38;;;5.45;;
78895;SDS011;68284;59.124;37.910;2023-05-10T03:04:28;12.38;;;5.00;;
78895;SDS011;68284;59.124;37.910;2023-05-10T03:06:56;10.57;;;5.25;;
78895;SDS011;68284;59.124;37.910;2023-05-10T03:19:56;8.73;;;5.13;;
78895;SDS011;68284;59.124;37.910;2023-05-10T03:22:30;7.10;;;4.82;;
78895;SDS011;68284;59.124;37.910;2023-05-10T03:25:00;8.27;;;4.65;;
78895;SDS011;68284;59.124;37.910;2023-05-10T03:27:33;9.82;;;3.80;;
78895;SDS011;68284;59.124;37.910;2023-05-10T03:30:01;21.58;;;4.53;;
78895;SDS011;68284;59.124;37.910;2023-05-10T03:32:31;12.52;;;5.38;;
78895;SDS011;68284;59.124;37.910;2023-05-10T03:35:00;14.27;;;4.32;;
78895;SDS011;68284;59.124;37.910;2023-05-10T03:37:27;8.88;;;4.43;;
78895;SDS011;68284;59.124;37.910;2023-05-10T03:39:54;64.50;;;10.70;;
78895;SDS011;68284;59.124;37.910;2023-05-10T03:42:20;10.60;;;3.90;;
78895;SDS011;68284;59.124;37.910;2023-05-10T03:44:47;9.50;;;4.18;;
78895;SDS011;68284;59.124;37.910;2023-05-10T03:47:14;8.85;;;4.32;;
78895;SDS011;68284;59.124;37.910;2023-05-10T03:49:41;14.00;;;4.38;;
78895;SDS011;68284;59.124;37.910;2023-05-10T03:54:34;13.07;;;4.88;;
78895;SDS011;68284;59.124;37.910;2023-05-10T03:57:00;9.27;;;5.72;;
78895;SDS011;68284;59.124;37.910;2023-05-10T03:59:26;15.70;;;5.22;;
78895;SDS011;68284;59.124;37.910;2023-05-10T04:01:53;13.95;;;4.97;;
78895;SDS011;68284;59.124;37.910;2023-05-10T04:04:19;12.40;;;6.13;;
78895;SDS011;68284;59.124;37.910;2023-05-10T04:06:48;9.85;;;6.13;;
78895;SDS011;68284;59.124;37.910;2023-05-10T04:09:15;18.23;;;5.05;;
78895;SDS011;68284;59.124;37.910;2023-05-10T04:11:46;20.08;;;6.07;;
78895;SDS011;68284;59.124;37.910;2023-05-10T04:14:12;12.02;;;5.97;;
78895;SDS011;68284;59.124;37.910;2023-05-10T04:16:39;10.20;;;6.20;;
78895;SDS011;68284;59.124;37.910;2023-05-10T04:19:05;9.93;;;4.90;;
78895;SDS011;68284;59.124;37.910;2023-05-10T04:21:32;11.82;;;6.10;;
78895;SDS011;68284;59.124;37.910;2023-05-10T04:23:59;11.60;;;4.68;;
78895;SDS011;68284;59.124;37.910;2023-05-10T04:26:26;8.35;;;4.25;;
78895;SDS011;68284;59.124;37.910;2023-05-10T04:28:52;9.65;;;6.72;;
78895;SDS011;68284;59.124;37.910;2023-05-10T04:31:19;13.32;;;6.00;;
78895;SDS011;68284;59.124;37.910;2023-05-10T04:36:11;11.77;;;4.35;;
78895;SDS011;68284;59.124;37.910;2023-05-10T04:38:37;12.20;;;5.47;;
78895;SDS011;68284;59.124;37.910;2023-05-10T04:41:04;15.68;;;6.78;;
78895;SDS011;68284;59.124;37.910;2023-05-10T04:43:32;16.10;;;6.97;;
78895;SDS011;68284;59.124;37.910;2023-05-10T04:45:59;15.93;;;4.60;;
78895;SDS011;68284;59.124;37.910;2023-05-10T04:48:26;11.95;;;4.60;;
78895;SDS011;68284;59.124;37.910;2023-05-10T04:50:54;13.00;;;6.03;;
78895;SDS011;68284;59.124;37.910;2023-05-10T04:53:20;8.52;;;4.10;;
78895;SDS011;68284;59.124;37.910;2023-05-10T04:55:46;10.88;;;4.88;;
78895;SDS011;68284;59.124;37.910;2023-05-10T04:58:14;18.23;;;4.32;;
78895;SDS011;68284;59.124;37.910;2023-05-10T05:00:42;16.10;;;6.75;;
78895;SDS011;68284;59.124;37.910;2023-05-10T05:03:59;13.10;;;5.32;;
78895;SDS011;68284;59.124;37.910;2023-05-10T05:06:27;21.27;;;6.70;;
78895;SDS011;68284;59.124;37.910;2023-05-10T05:08:53;14.98;;;6.13;;
78895;SDS011;68284;59.124;37.910;2023-05-10T05:11:23;24.52;;;7.68;;
78895;SDS011;68284;59.124;37.910;2023-05-10T05:13:52;18.02;;;5.95;;
78895;SDS011;68284;59.124;37.910;2023-05-10T05:16:18;19.67;;;5.72;;
78895;SDS011;68284;59.124;37.910;2023-05-10T05:18:47;23.30;;;6.97;;
78895;SDS011;68284;59.124;37.910;2023-05-10T05:21:14;15.68;;;6.57;;
78895;SDS011;68284;59.124;37.910;2023-05-10T05:23:44;15.48;;;6.35;;
78895;SDS011;68284;59.124;37.910;2023-05-10T05:26:14;12.05;;;4.68;;
78895;SDS011;68284;59.124;37.910;2023-05-10T05:31:10;15.55;;;5.13;;
78895;SDS011;68284;59.124;37.910;2023-05-10T05:33:36;15.02;;;5.25;;
78895;SDS011;68284;59.124;37.910;2023-05-10T05:38:32;16.15;;;5.47;;
78895;SDS011;68284;59.124;37.910;2023-05-10T05:40:59;13.57;;;6.07;;
78895;SDS011;68284;59.124;37.910;2023-05-10T05:43:26;17.10;;;5.65;;
78895;SDS011;68284;59.124;37.910;2023-05-10T05:45:54;15.55;;;5.07;;
78895;SDS011;68284;59.124;37.910;2023-05-10T05:48:22;15.50;;;5.00;;
78895;SDS011;68284;59.124;37.910;2023-05-10T05:50:48;10.80;;;5.70;;
78895;SDS011;68284;59.124;37.910;2023-05-10T05:53:14;16.42;;;6.78;;
78895;SDS011;68284;59.124;37.910;2023-05-10T05:55:50;14.23;;;5.53;;
78895;SDS011;68284;59.124;37.910;2023-05-10T05:58:23;21.75;;;7.07;;
78895;SDS011;68284;59.124;37.910;2023-05-10T06:00:51;24.88;;;7.63;;
78895;SDS011;68284;59.124;37.910;2023-05-10T06:03:19;40.45;;;11.35;;
78895;SDS011;68284;59.124;37.910;2023-05-10T06:05:47;35.83;;;12.55;;
78895;SDS011;68284;59.124;37.910;2023-05-10T06:08:17;23.48;;;11.13;;
78895;SDS011;68284;59.124;37.910;2023-05-10T06:13:12;16.02;;;5.13;;
78895;SDS011;68284;59.124;37.910;2023-05-10T06:15:38;15.85;;;5.68;;
78895;SDS011;68284;59.124;37.910;2023-05-10T06:18:05;12.73;;;4.85;;
78895;SDS011;68284;59.124;37.910;2023-05-10T06:20:34;16.13;;;6.38;;
78895;SDS011;68284;59.124;37.910;2023-05-10T06:23:03;16.85;;;6.60;;
78895;SDS011;68284;59.124;37.910;2023-05-10T06:25:31;15.13;;;5.60;;
78895;SDS011;68284;59.124;37.910;2023-05-10T06:27:57;25.42;;;8.07;;
78895;SDS011;68284;59.124;37.910;2023-05-10T06:30:24;20.85;;;8.23;;
78895;SDS011;68284;59.124;37.910;2023-05-10T06:32:54;16.13;;;6.68;;
78895;SDS011;68284;59.124;37.910;2023-05-10T06:35:20;11.32;;;5.82;;
78895;SDS011;68284;59.124;37.910;2023-05-10T06:37:49;9.68;;;4.95;;
78895;SDS011;68284;59.124;37.910;2023-05-10T06:40:16;15.77;;;5.78;;
78895;SDS011;68284;59.124;37.910;2023-05-10T06:42:43;12.48;;;6.20;;
78895;SDS011;68284;59.124;37.910;2023-05-10T06:45:12;13.98;;;7.47;;
78895;SDS011;68284;59.124;37.910;2023-05-10T06:47:42;17.27;;;6.28;;
78895;SDS011;68284;59.124;37.910;2023-05-10T06:50:11;14.07;;;7.47;;
78895;SDS011;68284;59.124;37.910;2023-05-10T06:52:41;16.45;;;10.00;;
78895;SDS011;68284;59.124;37.910;2023-05-10T06:57:36;10.30;;;5.28;;
78895;SDS011;68284;59.124;37.910;2023-05-10T07:00:04;7.70;;;3.60;;
78895;SDS011;68284;59.124;37.910;2023-05-10T07:02:36;7.10;;;3.63;;
78895;SDS011;68284;59.124;37.910;2023-05-10T07:05:03;10.10;;;5.00;;
78895;SDS011;68284;59.124;37.910;2023-05-10T07:07:31;4.45;;;2.38;;
78895;SDS011;68284;59.124;37.910;2023-05-10T07:09:58;5.15;;;2.38;;
78895;SDS011;68284;59.124;37.910;2023-05-10T07:12:27;3.97;;;1.52;;
78895;SDS011;68284;59.124;37.910;2023-05-10T07:14:57;4.43;;;2.20;;
78895;SDS011;68284;59.124;37.910;2023-05-10T07:17:24;1.45;;;1.20;;
78895;SDS011;68284;59.124;37.910;2023-05-10T07:19:58;2.50;;;1.00;;
78895;SDS011;68284;59.124;37.910;2023-05-10T07:22:33;2.67;;;1.70;;
78895;SDS011;68284;59.124;37.910;2023-05-10T07:25:00;2.63;;;1.42;;
78895;SDS011;68284;59.124;37.910;2023-05-10T07:27:28;4.43;;;1.60;;
78895;SDS011;68284;59.124;37.910;2023-05-10T07:29:54;4.55;;;1.38;;
78895;SDS011;68284;59.124;37.910;2023-05-10T07:32:23;1.15;;;0.73;;
78895;SDS011;68284;59.124;37.910;2023-05-10T07:34:50;1.63;;;1.10;;
78895;SDS011;68284;59.124;37.910;2023-05-10T07:37:18;5.85;;;0.95;;
78895;SDS011;68284;59.124;37.910;2023-05-10T07:39:45;1.45;;;1.25;;
78895;SDS011;68284;59.124;37.910;2023-05-10T07:42:12;4.22;;;1.20;;
78895;SDS011;68284;59.124;37.910;2023-05-10T07:44:38;3.10;;;1.20;;
78895;SDS011;68284;59.124;37.910;2023-05-10T07:47:05;2.28;;;1.48;;
78895;SDS011;68284;59.124;37.910;2023-05-10T07:49:34;3.97;;;2.65;;
78895;SDS011;68284;59.124;37.910;2023-05-10T07:52:02;4.25;;;3.45;;
78895;SDS011;68284;59.124;37.910;2023-05-10T07:54:29;5.55;;;3.45;;
78895;SDS011;68284;59.124;37.910;2023-05-10T07:56:55;5.65;;;3.30;;
78895;SDS011;68284;59.124;37.910;2023-05-10T07:59:25;4.05;;;2.30;;
78895;SDS011;68284;59.124;37.910;2023-05-10T08:01:57;1.50;;;1.35;;
78895;SDS011;68284;59.124;37.910;2023-05-10T08:04:54;1.35;;;1.25;;
78895;SDS011;68284;59.124;37.910;2023-05-10T08:07:26;3.30;;;1.48;;
78895;SDS011;68284;59.124;37.910;2023-05-10T08:09:53;1.55;;;0.95;;
78895;SDS011;68284;59.124;37.910;2023-05-10T08:12:22;2.42;;;1.38;;
78895;SDS011;68284;59.124;37.910;2023-05-10T08:14:48;1.63;;;1.20;;
78895;SDS011;68284;59.124;37.910;2023-05-10T08:17:15;2.28;;;1.83;;
78895;SDS011;68284;59.124;37.910;2023-05-10T08:19:41;6.43;;;1.52;;
78895;SDS011;68284;59.124;37.910;2023-05-10T08:22:08;1.58;;;1.48;;
78895;SDS011;68284;59.124;37.910;2023-05-10T08:24:34;2.50;;;1.63;;
78895;SDS011;68284;59.124;37.910;2023-05-10T08:27:07;2.45;;;1.45;;
78895;SDS011;68284;59.124;37.910;2023-05-10T08:29:34;4.55;;;1.35;;
78895;SDS011;68284;59.124;37.910;2023-05-10T08:32:00;1.90;;;1.27;;
78895;SDS011;68284;59.124;37.910;2023-05-10T08:34:28;1.92;;;1.42;;
78895;SDS011;68284;59.124;37.910;2023-05-10T08:36:54;1.85;;;1.10;;
78895;SDS011;68284;59.124;37.910;2023-05-10T08:39:33;2.72;;;2.15;;
78895;SDS011;68284;59.124;37.910;2023-05-10T08:42:01;2.72;;;1.60;;
78895;SDS011;68284;59.124;37.910;2023-05-10T08:44:32;2.95;;;1.42;;
78895;SDS011;68284;59.124;37.910;2023-05-10T08:47:04;3.78;;;1.38;;
78895;SDS011;68284;59.124;37.910;2023-05-10T08:49:32;1.65;;;1.40;;
78895;SDS011;68284;59.124;37.910;2023-05-10T08:51:59;3.05;;;1.25;;
78895;SDS011;68284;59.124;37.910;2023-05-10T08:54:31;2.10;;;1.90;;
78895;SDS011;68284;59.124;37.910;2023-05-10T08:56:58;2.03;;;1.20;;
78895;SDS011;68284;59.124;37.910;2023-05-10T08:59:25;2.38;;;1.50;;
78895;SDS011;68284;59.124;37.910;2023-05-10T09:01:51;1.45;;;1.33;;
78895;SDS011;68284;59.124;37.910;2023-05-10T09:04:20;4.45;;;1.50;;
78895;SDS011;68284;59.124;37.910;2023-05-10T09:06:48;1.77;;;1.10;;
78895;SDS011;68284;59.124;37.910;2023-05-10T09:09:14;3.80;;;3.15;;
78895;SDS011;68284;59.124;37.910;2023-05-10T09:11:41;2.20;;;1.85;;
78895;SDS011;68284;59.124;37.910;2023-05-10T09:14:08;1.90;;;1.80;;
78895;SDS011;68284;59.124;37.910;2023-05-10T09:16:39;3.47;;;1.20;;
78895;SDS011;68284;59.124;37.910;2023-05-10T09:19:07;1.58;;;1.48;;
78895;SDS011;68284;59.124;37.910;2023-05-10T09:21:35;3.30;;;1.70;;
78895;SDS011;68284;59.124;37.910;2023-05-10T09:24:08;1.73;;;1.40;;
78895;SDS011;68284;59.124;37.910;2023-05-10T09:26:35;1.45;;;1.20;;
78895;SDS011;68284;59.124;37.910;2023-05-10T09:29:14;1.15;;;1.00;;
78895;SDS011;68284;59.124;37.910;2023-05-10T09:31:47;1.65;;;1.55;;
78895;SDS011;68284;59.124;37.910;2023-05-10T09:34:30;1.48;;;1.10;;
78895;SDS011;68284;59.124;37.910;2023-05-10T09:36:58;3.42;;;1.15;;
78895;SDS011;68284;59.124;37.910;2023-05-10T09:39:33;1.88;;;1.58;;
78895;SDS011;68284;59.124;37.910;2023-05-10T09:42:02;2.65;;;1.65;;
78895;SDS011;68284;59.124;37.910;2023-05-10T09:44:30;2.38;;;1.40;;
78895;SDS011;68284;59.124;37.910;2023-05-10T09:46:58;2.42;;;2.22;;
78895;SDS011;68284;59.124;37.910;2023-05-10T09:49:25;1.77;;;1.42;;
78895;SDS011;68284;59.124;37.910;2023-05-10T09:52:02;1.38;;;0.90;;
78895;SDS011;68284;59.124;37.910;2023-05-10T09:54:30;1.75;;;1.15;;
78895;SDS011;68284;59.124;37.910;2023-05-10T09:57:00;1.60;;;1.42;;
78895;SDS011;68284;59.124;37.910;2023-05-10T09:59:45;1.80;;;1.40;;
78895;SDS011;68284;59.124;37.910;2023-05-10T10:05:07;1.90;;;1.77;;
78895;SDS011;68284;59.124;37.910;2023-05-10T10:07:41;2.75;;;1.20;;
78895;SDS011;68284;59.124;37.910;2023-05-10T10:10:08;2.78;;;1.73;;
78895;SDS011;68284;59.124;37.910;2023-05-10T10:12:39;1.77;;;1.27;;
78895;SDS011;68284;59.124;37.910;2023-05-10T10:15:09;4.20;;;1.25;;
78895;SDS011;68284;59.124;37.910;2023-05-10T10:17:39;3.05;;;1.10;;
78895;SDS011;68284;59.124;37.910;2023-05-10T10:20:09;2.00;;;1.50;;
78895;SDS011;68284;59.124;37.910;2023-05-10T10:22:36;1.75;;;1.65;;
78895;SDS011;68284;59.124;37.910;2023-05-10T10:25:08;2.15;;;1.30;;
78895;SDS011;68284;59.124;37.910;2023-05-10T10:27:49;1.50;;;1.20;;
78895;SDS011;68284;59.124;37.910;2023-05-10T10:30:41;1.55;;;1.40;;
78895;SDS011;68284;59.124;37.910;2023-05-10T10:33:28;2.08;;;1.88;;
78895;SDS011;68284;59.124;37.910;2023-05-10T10:36:27;3.45;;;2.30;;
78895;SDS011;68284;59.124;37.910;2023-05-10T10:41:57;1.85;;;1.10;;
78895;SDS011;68284;59.124;37.910;2023-05-10T10:52:30;1.95;;;1.60;;
78895;SDS011;68284;59.124;37.910;2023-05-10T10:57:49;2.60;;;1.40;;
78895;SDS011;68284;59.124;37.910;2023-05-10T11:00:29;2.90;;;1.45;;
78895;SDS011;68284;59.124;37.910;2023-05-10T11:03:10;1.40;;;1.30;;
78895;SDS011;68284;59.124;37.910;2023-05-10T11:05:49;2.53;;;2.28;;
78895;SDS011;68284;59.124;37.910;2023-05-10T11:08:41;2.10;;;1.45;;
78895;SDS011;68284;59.124;37.910;2023-05-10T11:11:12;3.13;;;1.27;;
78895;SDS011;68284;59.124;37.910;2023-05-10T11:13:45;2.67;;;1.70;;
78895;SDS011;68284;59.124;37.910;2023-05-10T11:16:23;3.28;;;1.60;;
78895;SDS011;68284;59.124;37.910;2023-05-10T11:19:06;2.05;;;1.58;;
78895;SDS011;68284;59.124;37.910;2023-05-10T11:21:44;3.40;;;2.20;;
78895;SDS011;68284;59.124;37.910;2023-05-10T11:27:37;1.85;;;1.50;;
78895;SDS011;68284;59.124;37.910;2023-05-10T11:30:05;4.80;;;1.23;;
78895;SDS011;68284;59.124;37.910;2023-05-10T11:32:32;2.35;;;1.40;;
78895;SDS011;68284;59.124;37.910;2023-05-10T11:34:58;2.65;;;1.52;;
78895;SDS011;68284;59.124;37.910;2023-05-10T11:37:28;3.88;;;1.50;;
78895;SDS011;68284;59.124;37.910;2023-05-10T11:53:40;1.60;;;1.50;;
78895;SDS011;68284;59.124;37.910;2023-05-10T11:56:10;2.00;;;1.52;;
78895;SDS011;68284;59.124;37.910;2023-05-10T11:58:52;1.50;;;1.00;;
78895;SDS011;68284;59.124;37.910;2023-05-10T12:01:29;2.33;;;1.20;;
78895;SDS011;68284;59.124;37.910;2023-05-10T12:04:04;3.33;;;1.40;;
78895;SDS011;68284;59.124;37.910;2023-05-10T12:06:32;3.30;;;1.55;;
78895;SDS011;68284;59.124;37.910;2023-05-10T12:09:07;2.63;;;1.05;;
78895;SDS011;68284;59.124;37.910;2023-05-10T12:11:38;7.95;;;2.15;;
78895;SDS011;68284;59.124;37.910;2023-05-10T12:14:08;6.10;;;2.13;;
78895;SDS011;68284;59.124;37.910;2023-05-10T12:16:35;1.60;;;1.13;;
78895;SDS011;68284;59.124;37.910;2023-05-10T12:19:02;2.13;;;1.60;;
78895;SDS011;68284;59.124;37.910;2023-05-10T12:21:33;2.97;;;1.38;;
78895;SDS011;68284;59.124;37.910;2023-05-10T12:24:02;5.50;;;1.52;;
78895;SDS011;68284;59.124;37.910;2023-05-10T12:26:29;2.00;;;1.48;;
78895;SDS011;68284;59.124;37.910;2023-05-10T12:29:11;2.55;;;1.50;;
78895;SDS011;68284;59.124;37.910;2023-05-10T12:31:51;1.77;;;1.35;;
78895;SDS011;68284;59.124;37.910;2023-05-10T12:34:32;1.52;;;1.40;;
78895;SDS011;68284;59.124;37.910;2023-05-10T12:37:01;1.52;;;1.42;;
78895;SDS011;68284;59.124;37.910;2023-05-10T12:39:39;5.68;;;1.45;;
78895;SDS011;68284;59.124;37.910;2023-05-10T12:42:06;2.58;;;1.30;;
78895;SDS011;68284;59.124;37.910;2023-05-10T12:44:32;3.00;;;1.45;;
78895;SDS011;68284;59.124;37.910;2023-05-10T12:46:59;3.38;;;1.30;;
78895;SDS011;68284;59.124;37.910;2023-05-10T12:49:26;3.00;;;1.40;;
78895;SDS011;68284;59.124;37.910;2023-05-10T12:51:53;3.28;;;1.20;;
78895;SDS011;68284;59.124;37.910;2023-05-10T12:54:19;4.65;;;1.20;;
78895;SDS011;68284;59.124;37.910;2023-05-10T12:56:45;4.18;;;1.90;;
78895;SDS011;68284;59.124;37.910;2023-05-10T12:59:11;6.40;;;1.50;;
78895;SDS011;68284;59.124;37.910;2023-05-10T13:01:38;3.30;;;1.20;;
78895;SDS011;68284;59.124;37.910;2023-05-10T13:04:07;2.72;;;1.35;;
78895;SDS011;68284;59.124;37.910;2023-05-10T13:06:33;5.60;;;1.52;;
78895;SDS011;68284;59.124;37.910;2023-05-10T13:09:01;1.40;;;1.20;;
78895;SDS011;68284;59.124;37.910;2023-05-10T13:11:28;2.95;;;1.45;;
78895;SDS011;68284;59.124;37.910;2023-05-10T13:13:54;4.25;;;1.42;;
78895;SDS011;68284;59.124;37.910;2023-05-10T13:16:21;5.20;;;1.52;;
78895;SDS011;68284;59.124;37.910;2023-05-10T13:18:47;4.10;;;1.40;;
78895;SDS011;68284;59.124;37.910;2023-05-10T13:21:13;1.85;;;1.00;;
78895;SDS011;68284;59.124;37.910;2023-05-10T13:23:39;4.72;;;2.10;;
78895;SDS011;68284;59.124;37.910;2023-05-10T13:26:07;3.03;;;1.48;;
78895;SDS011;68284;59.124;37.910;2023-05-10T13:28:33;1.35;;;1.20;;
78895;SDS011;68284;59.124;37.910;2023-05-10T13:30:59;2.72;;;1.35;;
78895;SDS011;68284;59.124;37.910;2023-05-10T13:33:25;2.38;;;1.50;;
78895;SDS011;68284;59.124;37.910;2023-05-10T13:35:51;2.55;;;1.80;;
78895;SDS011;68284;59.124;37.910;2023-05-10T13:38:18;3.65;;;1.55;;
78895;SDS011;68284;59.124;37.910;2023-05-10T13:40:45;3.40;;;1.77;;
78895;SDS011;68284;59.124;37.910;2023-05-10T13:43:11;1.90;;;1.67;;
78895;SDS011;68284;59.124;37.910;2023-05-10T13:45:38;5.35;;;1.98;;
78895;SDS011;68284;59.124;37.910;2023-05-10T13:48:04;4.97;;;1.27;;
78895;SDS011;68284;59.124;37.910;2023-05-10T13:50:31;5.13;;;1.73;;
78895;SDS011;68284;59.124;37.910;2023-05-10T13:52:57;3.05;;;1.67;;
78895;SDS011;68284;59.124;37.910;2023-05-10T13:55:25;3.78;;;1.60;;
78895;SDS011;68284;59.124;37.910;2023-05-10T13:57:51;4.55;;;1.80;;
78895;SDS011;68284;59.124;37.910;2023-05-10T14:00:17;4.40;;;1.50;;
78895;SDS011;68284;59.124;37.910;2023-05-10T14:02:43;2.40;;;1.90;;
78895;SDS011;68284;59.124;37.910;2023-05-10T14:05:10;4.65;;;1.40;;
78895;SDS011;68284;59.124;37.910;2023-05-10T14:07:36;2.10;;;1.50;;
78895;SDS011;68284;59.124;37.910;2023-05-10T14:10:03;5.20;;;1.88;;
78895;SDS011;68284;59.124;37.910;2023-05-10T14:12:30;3.50;;;1.45;;
78895;SDS011;68284;59.124;37.910;2023-05-10T14:14:56;3.03;;;1.20;;
78895;SDS011;68284;59.124;37.910;2023-05-10T14:17:25;2.55;;;1.33;;
78895;SDS011;68284;59.124;37.910;2023-05-10T14:19:52;3.60;;;1.65;;
78895;SDS011;68284;59.124;37.910;2023-05-10T14:22:19;1.63;;;1.50;;
78895;SDS011;68284;59.124;37.910;2023-05-10T14:24:46;2.30;;;1.30;;
78895;SDS011;68284;59.124;37.910;2023-05-10T14:27:14;2.45;;;1.27;;
78895;SDS011;68284;59.124;37.910;2023-05-10T14:29:44;1.92;;;1.58;;
78895;SDS011;68284;59.124;37.910;2023-05-10T14:32:10;3.58;;;1.58;;
78895;SDS011;68284;59.124;37.910;2023-05-10T14:34:37;7.75;;;1.73;;
78895;SDS011;68284;59.124;37.910;2023-05-10T14:37:09;3.90;;;1.63;;
78895;SDS011;68284;59.124;37.910;2023-05-10T14:39:38;2.10;;;1.15;;
78895;SDS011;68284;59.124;37.910;2023-05-10T14:42:05;2.38;;;1.55;;
78895;SDS011;68284;59.124;37.910;2023-05-10T14:44:31;2.92;;;1.10;;
78895;SDS011;68284;59.124;37.910;2023-05-10T14:46:58;2.88;;;1.90;;
78895;SDS011;68284;59.124;37.910;2023-05-10T14:49:25;2.30;;;1.35;;
78895;SDS011;68284;59.124;37.910;2023-05-10T14:51:52;4.05;;;2.50;;
78895;SDS011;68284;59.124;37.910;2023-05-10T14:54:19;6.75;;;1.38;;
78895;SDS011;68284;59.124;37.910;2023-05-10T14:56:46;2.38;;;1.70;;
78895;SDS011;68284;59.124;37.910;2023-05-10T14:59:16;2.17;;;1.50;;
78895;SDS011;68284;59.124;37.910;2023-05-10T15:01:43;3.65;;;1.83;;
78895;SDS011;68284;59.124;37.910;2023-05-10T15:04:10;6.70;;;1.52;;
78895;SDS011;68284;59.124;37.910;2023-05-10T15:06:36;9.00;;;1.63;;
78895;SDS011;68284;59.124;37.910;2023-05-10T15:09:04;3.20;;;2.05;;
78895;SDS011;68284;59.124;37.910;2023-05-10T15:11:31;4.90;;;1.55;;
78895;SDS011;68284;59.124;37.910;2023-05-10T15:13:59;2.88;;;1.65;;
78895;SDS011;68284;59.124;37.910;2023-05-10T15:16:25;2.25;;;1.48;;
78895;SDS011;68284;59.124;37.910;2023-05-10T15:21:25;4.00;;;2.53;;
78895;SDS011;68284;59.124;37.910;2023-05-10T15:23:53;2.08;;;1.70;;
78895;SDS011;68284;59.124;37.910;2023-05-10T15:26:19;3.72;;;1.70;;
78895;SDS011;68284;59.124;37.910;2023-05-10T15:29:13;2.58;;;1.73;;
78895;SDS011;68284;59.124;37.910;2023-05-10T15:31:47;5.30;;;1.63;;
78895;SDS011;68284;59.124;37.910;2023-05-10T15:34:16;2.10;;;1.77;;
78895;SDS011;68284;59.124;37.910;2023-05-10T15:36:43;5.85;;;2.05;;
78895;SDS011;68284;59.124;37.910;2023-05-10T15:39:10;3.08;;;1.92;;
78895;SDS011;68284;59.124;37.910;2023-05-10T15:41:38;3.72;;;2.00;;
78895;SDS011;68284;59.124;37.910;2023-05-10T15:44:04;3.22;;;1.42;;
78895;SDS011;68284;59.124;37.910;2023-05-10T15:46:33;4.40;;;1.80;;
78895;SDS011;68284;59.124;37.910;2023-05-10T15:48:59;3.30;;;1.33;;
78895;SDS011;68284;59.124;37.910;2023-05-10T15:51:25;4.57;;;1.60;;
78895;SDS011;68284;59.124;37.910;2023-05-10T15:53:51;1.67;;;1.25;;
78895;SDS011;68284;59.124;37.910;2023-05-10T15:56:19;5.32;;;1.63;;
78895;SDS011;68284;59.124;37.910;2023-05-10T15:58:45;3.05;;;1.77;;
78895;SDS011;68284;59.124;37.910;2023-05-10T16:01:11;4.63;;;1.48;;
78895;SDS011;68284;59.124;37.910;2023-05-10T16:03:37;2.78;;;1.42;;
78895;SDS011;68284;59.124;37.910;2023-05-10T16:06:03;2.42;;;1.48;;
78895;SDS011;68284;59.124;37.910;2023-05-10T16:08:30;4.03;;;1.52;;